sensor_id;sensor_type;location;lat;lon;timestamp;P1;durP1;ratioP1;P2;durP2;ratioP2
11819;SDS011;5967;48.944;9.240;2022-09-01T00:02:13;7.00;;;5.17;;
11819;SDS011;5967;48.944;9.240;2022-09-01T00:04:40;6.00;;;5.40;;
11819;SDS011;5967;48.944;9.240;2022-09-01T00:07:08;7.93;;;5.83;;
11819;SDS011;5967;48.944;9.240;2022-09-01T00:09:36;6.03;;;5.23;;
11819;SDS011;5967;48.944;9.240;2022-09-01T00:12:02;6.13;;;5.53;;
11819;SDS011;5967;48.944;9.240;2022-09-01T00:14:30;6.50;;;5.90;;
11819;SDS011;5967;48.944;9.240;2022-09-01T00:16:59;7.30;;;5.73;;
11819;SDS011;5967;48.944;9.240;2022-09-01T00:19:26;5.97;;;5.37;;
11819;SDS011;5967;48.944;9.240;2022-09-01T00:21:53;7.90;;;6.20;;
11819;SDS011;5967;48.944;9.240;2022-09-01T00:24:20;7.97;;;5.67;;
11819;SDS011;5967;48.944;9.240;2022-09-01T00:26:46;6.43;;;5.83;;
11819;SDS011;5967;48.944;9.240;2022-09-01T00:29:13;7.10;;;5.80;;
11819;SDS011;5967;48.944;9.240;2022-09-01T00:31:39;5.73;;;5.20;;
11819;SDS011;5967;48.944;9.240;2022-09-01T00:34:05;6.83;;;6.10;;
11819;SDS011;5967;48.944;9.240;2022-09-01T00:36:31;6.37;;;5.60;;
11819;SDS011;5967;48.944;9.240;2022-09-01T00:38:57;7.00;;;5.60;;
11819;SDS011;5967;48.944;9.240;2022-09-01T00:41:24;7.73;;;6.00;;
11819;SDS011;5967;48.944;9.240;2022-09-01T00:43:53;8.90;;;6.00;;
11819;SDS011;5967;48.944;9.240;2022-09-01T00:46:25;5.60;;;5.00;;
11819;SDS011;5967;48.944;9.240;2022-09-01T00:48:58;6.07;;;5.57;;
11819;SDS011;5967;48.944;9.240;2022-09-01T00:51:25;7.63;;;6.17;;
11819;SDS011;5967;48.944;9.240;2022-09-01T00:53:52;6.37;;;5.77;;
11819;SDS011;5967;48.944;9.240;2022-09-01T00:56:19;6.13;;;5.53;;
11819;SDS011;5967;48.944;9.240;2022-09-01T00:58:46;6.37;;;5.70;;
11819;SDS011;5967;48.944;9.240;2022-09-01T01:01:12;8.10;;;5.77;;
11819;SDS011;5967;48.944;9.240;2022-09-01T01:03:38;6.30;;;5.50;;
11819;SDS011;5967;48.944;9.240;2022-09-01T01:06:06;6.40;;;5.80;;
11819;SDS011;5967;48.944;9.240;2022-09-01T01:08:33;8.93;;;6.53;;
11819;SDS011;5967;48.944;9.240;2022-09-01T01:11:08;7.73;;;5.83;;
11819;SDS011;5967;48.944;9.240;2022-09-01T01:16:35;6.87;;;5.60;;
11819;SDS011;5967;48.944;9.240;2022-09-01T01:19:04;6.97;;;5.60;;
11819;SDS011;5967;48.944;9.240;2022-09-01T01:21:52;6.30;;;5.70;;
11819;SDS011;5967;48.944;9.240;2022-09-01T01:24:36;7.03;;;6.33;;
11819;SDS011;5967;48.944;9.240;2022-09-01T01:27:01;6.60;;;5.90;;
11819;SDS011;5967;48.944;9.240;2022-09-01T01:29:33;6.50;;;5.90;;
11819;SDS011;5967;48.944;9.240;2022-09-01T01:32:02;7.87;;;6.10;;
11819;SDS011;5967;48.944;9.240;2022-09-01T01:34:37;7.23;;;6.10;;
11819;SDS011;5967;48.944;9.240;2022-09-01T01:37:09;6.47;;;5.80;;
11819;SDS011;5967;48.944;9.240;2022-09-01T01:39:38;6.90;;;6.00;;
11819;SDS011;5967;48.944;9.240;2022-09-01T01:42:07;7.67;;;6.03;;
11819;SDS011;5967;48.944;9.240;2022-09-01T01:44:36;6.57;;;5.87;;
11819;SDS011;5967;48.944;9.240;2022-09-01T01:47:04;8.80;;;5.90;;
11819;SDS011;5967;48.944;9.240;2022-09-01T01:49:34;6.67;;;5.97;;
11819;SDS011;5967;48.944;9.240;2022-09-01T01:52:00;7.83;;;6.10;;
11819;SDS011;5967;48.944;9.240;2022-09-01T01:54:27;7.90;;;6.60;;
11819;SDS011;5967;48.944;9.240;2022-09-01T01:56:55;6.87;;;6.07;;
11819;SDS011;5967;48.944;9.240;2022-09-01T01:59:22;6.43;;;5.83;;
11819;SDS011;5967;48.944;9.240;2022-09-01T02:01:48;6.87;;;6.07;;
11819;SDS011;5967;48.944;9.240;2022-09-01T02:04:15;6.83;;;6.23;;
11819;SDS011;5967;48.944;9.240;2022-09-01T02:06:44;6.77;;;6.17;;
11819;SDS011;5967;48.944;9.240;2022-09-01T02:09:12;7.23;;;6.17;;
11819;SDS011;5967;48.944;9.240;2022-09-01T02:11:39;7.87;;;6.60;;
11819;SDS011;5967;48.944;9.240;2022-09-01T02:14:06;7.07;;;6.37;;
11819;SDS011;5967;48.944;9.240;2022-09-01T02:16:33;8.00;;;6.33;;
11819;SDS011;5967;48.944;9.240;2022-09-01T02:18:59;6.97;;;6.17;;
11819;SDS011;5967;48.944;9.240;2022-09-01T02:21:26;7.20;;;6.07;;
11819;SDS011;5967;48.944;9.240;2022-09-01T02:23:53;7.07;;;6.37;;
11819;SDS011;5967;48.944;9.240;2022-09-01T02:26:25;7.03;;;6.33;;
11819;SDS011;5967;48.944;9.240;2022-09-01T02:28:55;8.50;;;7.10;;
11819;SDS011;5967;48.944;9.240;2022-09-01T02:31:25;8.80;;;6.70;;
11819;SDS011;5967;48.944;9.240;2022-09-01T02:33:51;7.37;;;6.50;;
11819;SDS011;5967;48.944;9.240;2022-09-01T02:36:18;8.57;;;7.13;;
11819;SDS011;5967;48.944;9.240;2022-09-01T02:38:45;8.50;;;7.03;;
11819;SDS011;5967;48.944;9.240;2022-09-01T02:41:12;8.20;;;7.07;;
11819;SDS011;5967;48.944;9.240;2022-09-01T02:43:39;8.63;;;7.23;;
11819;SDS011;5967;48.944;9.240;2022-09-01T02:46:07;8.73;;;7.50;;
11819;SDS011;5967;48.944;9.240;2022-09-01T02:48:35;9.33;;;7.10;;
11819;SDS011;5967;48.944;9.240;2022-09-01T02:51:05;8.03;;;7.23;;
11819;SDS011;5967;48.944;9.240;2022-09-01T02:53:37;8.50;;;7.70;;
11819;SDS011;5967;48.944;9.240;2022-09-01T02:56:04;8.77;;;7.87;;
11819;SDS011;5967;48.944;9.240;2022-09-01T02:58:36;8.27;;;7.37;;
11819;SDS011;5967;48.944;9.240;2022-09-01T03:01:31;8.37;;;7.23;;
11819;SDS011;5967;48.944;9.240;2022-09-01T03:03:58;8.57;;;7.67;;
11819;SDS011;5967;48.944;9.240;2022-09-01T03:06:27;12.03;;;8.43;;
11819;SDS011;5967;48.944;9.240;2022-09-01T03:08:55;10.03;;;8.47;;
11819;SDS011;5967;48.944;9.240;2022-09-01T03:11:27;10.03;;;9.03;;
11819;SDS011;5967;48.944;9.240;2022-09-01T03:13:55;11.10;;;9.03;;
11819;SDS011;5967;48.944;9.240;2022-09-01T03:16:21;10.17;;;9.17;;
11819;SDS011;5967;48.944;9.240;2022-09-01T03:18:47;10.27;;;9.20;;
11819;SDS011;5967;48.944;9.240;2022-09-01T03:21:13;11.43;;;9.83;;
11819;SDS011;5967;48.944;9.240;2022-09-01T03:23:41;10.63;;;9.40;;
11819;SDS011;5967;48.944;9.240;2022-09-01T03:26:11;11.40;;;10.20;;
11819;SDS011;5967;48.944;9.240;2022-09-01T03:28:38;12.60;;;9.27;;
11819;SDS011;5967;48.944;9.240;2022-09-01T03:31:05;12.50;;;10.63;;
11819;SDS011;5967;48.944;9.240;2022-09-01T03:33:31;11.67;;;10.47;;
11819;SDS011;5967;48.944;9.240;2022-09-01T03:35:59;10.23;;;9.23;;
11819;SDS011;5967;48.944;9.240;2022-09-01T03:38:27;12.60;;;10.70;;
11819;SDS011;5967;48.944;9.240;2022-09-01T03:40:54;11.13;;;10.03;;
11819;SDS011;5967;48.944;9.240;2022-09-01T03:43:25;11.67;;;10.53;;
11819;SDS011;5967;48.944;9.240;2022-09-01T03:45:54;11.20;;;10.10;;
11819;SDS011;5967;48.944;9.240;2022-09-01T03:48:23;10.50;;;9.23;;
11819;SDS011;5967;48.944;9.240;2022-09-01T03:50:53;10.83;;;9.07;;
11819;SDS011;5967;48.944;9.240;2022-09-01T03:53:21;10.40;;;8.90;;
11819;SDS011;5967;48.944;9.240;2022-09-01T03:55:49;9.93;;;8.87;;
11819;SDS011;5967;48.944;9.240;2022-09-01T03:58:17;10.87;;;9.03;;
11819;SDS011;5967;48.944;9.240;2022-09-01T04:00:44;11.13;;;9.60;;
11819;SDS011;5967;48.944;9.240;2022-09-01T04:03:19;11.70;;;10.03;;
11819;SDS011;5967;48.944;9.240;2022-09-01T04:05:47;11.60;;;10.33;;
11819;SDS011;5967;48.944;9.240;2022-09-01T04:08:15;12.23;;;10.93;;
11819;SDS011;5967;48.944;9.240;2022-09-01T04:10:43;12.17;;;10.87;;
11819;SDS011;5967;48.944;9.240;2022-09-01T04:13:17;15.07;;;12.57;;
11819;SDS011;5967;48.944;9.240;2022-09-01T04:15:46;13.47;;;12.13;;
11819;SDS011;5967;48.944;9.240;2022-09-01T04:18:12;13.73;;;12.33;;
11819;SDS011;5967;48.944;9.240;2022-09-01T04:20:57;13.57;;;12.17;;
11819;SDS011;5967;48.944;9.240;2022-09-01T04:23:25;13.13;;;11.33;;
11819;SDS011;5967;48.944;9.240;2022-09-01T04:25:57;13.77;;;12.27;;
11819;SDS011;5967;48.944;9.240;2022-09-01T04:28:24;14.83;;;13.27;;
11819;SDS011;5967;48.944;9.240;2022-09-01T04:30:58;14.80;;;13.20;;
11819;SDS011;5967;48.944;9.240;2022-09-01T04:33:29;15.10;;;13.40;;
11819;SDS011;5967;48.944;9.240;2022-09-01T04:36:01;14.03;;;12.57;;
11819;SDS011;5967;48.944;9.240;2022-09-01T04:38:27;15.53;;;12.83;;
11819;SDS011;5967;48.944;9.240;2022-09-01T04:40:54;17.03;;;13.43;;
11819;SDS011;5967;48.944;9.240;2022-09-01T04:43:21;14.80;;;13.30;;
11819;SDS011;5967;48.944;9.240;2022-09-01T04:45:48;15.47;;;13.87;;
11819;SDS011;5967;48.944;9.240;2022-09-01T04:48:15;15.27;;;13.40;;
11819;SDS011;5967;48.944;9.240;2022-09-01T04:50:42;14.57;;;13.00;;
11819;SDS011;5967;48.944;9.240;2022-09-01T04:53:08;14.33;;;12.77;;
11819;SDS011;5967;48.944;9.240;2022-09-01T04:55:37;16.17;;;13.67;;
11819;SDS011;5967;48.944;9.240;2022-09-01T04:58:07;15.30;;;13.70;;
11819;SDS011;5967;48.944;9.240;2022-09-01T05:00:38;15.07;;;13.47;;
11819;SDS011;5967;48.944;9.240;2022-09-01T05:03:04;16.03;;;14.33;;
11819;SDS011;5967;48.944;9.240;2022-09-01T05:05:40;18.60;;;14.33;;
11819;SDS011;5967;48.944;9.240;2022-09-01T05:08:09;15.93;;;13.87;;
11819;SDS011;5967;48.944;9.240;2022-09-01T05:10:44;17.47;;;15.27;;
11819;SDS011;5967;48.944;9.240;2022-09-01T05:13:13;15.63;;;13.90;;
11819;SDS011;5967;48.944;9.240;2022-09-01T05:15:41;16.50;;;14.47;;
11819;SDS011;5967;48.944;9.240;2022-09-01T05:18:15;15.97;;;14.37;;
11819;SDS011;5967;48.944;9.240;2022-09-01T05:20:47;16.30;;;14.57;;
11819;SDS011;5967;48.944;9.240;2022-09-01T05:23:14;17.93;;;15.57;;
11819;SDS011;5967;48.944;9.240;2022-09-01T05:25:44;18.27;;;15.17;;
11819;SDS011;5967;48.944;9.240;2022-09-01T05:28:13;19.13;;;15.27;;
11819;SDS011;5967;48.944;9.240;2022-09-01T05:30:41;17.23;;;14.63;;
11819;SDS011;5967;48.944;9.240;2022-09-01T05:33:08;18.27;;;16.27;;
11819;SDS011;5967;48.944;9.240;2022-09-01T05:35:40;19.67;;;16.33;;
11819;SDS011;5967;48.944;9.240;2022-09-01T05:38:09;19.30;;;16.00;;
11819;SDS011;5967;48.944;9.240;2022-09-01T05:40:39;20.67;;;16.73;;
11819;SDS011;5967;48.944;9.240;2022-09-01T05:43:06;18.07;;;15.37;;
11819;SDS011;5967;48.944;9.240;2022-09-01T05:45:35;21.53;;;16.50;;
11819;SDS011;5967;48.944;9.240;2022-09-01T05:48:01;19.43;;;15.17;;
11819;SDS011;5967;48.944;9.240;2022-09-01T05:50:27;22.10;;;16.20;;
11819;SDS011;5967;48.944;9.240;2022-09-01T05:52:53;23.83;;;16.53;;
11819;SDS011;5967;48.944;9.240;2022-09-01T05:55:22;24.30;;;17.43;;
11819;SDS011;5967;48.944;9.240;2022-09-01T05:57:51;18.00;;;15.43;;
11819;SDS011;5967;48.944;9.240;2022-09-01T06:00:17;20.27;;;16.60;;
11819;SDS011;5967;48.944;9.240;2022-09-01T06:02:44;23.20;;;16.80;;
11819;SDS011;5967;48.944;9.240;2022-09-01T06:05:10;21.33;;;17.20;;
11819;SDS011;5967;48.944;9.240;2022-09-01T06:07:37;23.07;;;17.37;;
11819;SDS011;5967;48.944;9.240;2022-09-01T06:10:06;24.03;;;17.57;;
11819;SDS011;5967;48.944;9.240;2022-09-01T06:12:32;18.70;;;16.70;;
11819;SDS011;5967;48.944;9.240;2022-09-01T06:14:58;19.23;;;16.63;;
11819;SDS011;5967;48.944;9.240;2022-09-01T06:17:24;20.50;;;16.13;;
11819;SDS011;5967;48.944;9.240;2022-09-01T06:19:53;18.30;;;16.40;;
11819;SDS011;5967;48.944;9.240;2022-09-01T06:22:20;20.53;;;15.97;;
11819;SDS011;5967;48.944;9.240;2022-09-01T06:24:48;17.73;;;15.93;;
11819;SDS011;5967;48.944;9.240;2022-09-01T06:27:16;16.83;;;14.10;;
11819;SDS011;5967;48.944;9.240;2022-09-01T06:29:44;16.57;;;13.70;;
11819;SDS011;5967;48.944;9.240;2022-09-01T06:32:18;14.80;;;12.43;;
11819;SDS011;5967;48.944;9.240;2022-09-01T06:34:44;13.90;;;12.50;;
11819;SDS011;5967;48.944;9.240;2022-09-01T06:37:13;14.73;;;12.90;;
11819;SDS011;5967;48.944;9.240;2022-09-01T06:39:39;13.50;;;12.10;;
11819;SDS011;5967;48.944;9.240;2022-09-01T06:42:05;14.37;;;12.43;;
11819;SDS011;5967;48.944;9.240;2022-09-01T06:44:33;14.63;;;13.07;;
11819;SDS011;5967;48.944;9.240;2022-09-01T06:46:59;13.47;;;11.90;;
11819;SDS011;5967;48.944;9.240;2022-09-01T06:49:25;11.27;;;10.07;;
11819;SDS011;5967;48.944;9.240;2022-09-01T06:52:00;12.03;;;10.67;;
11819;SDS011;5967;48.944;9.240;2022-09-01T06:54:27;11.57;;;10.23;;
11819;SDS011;5967;48.944;9.240;2022-09-01T06:56:58;10.83;;;9.73;;
11819;SDS011;5967;48.944;9.240;2022-09-01T06:59:26;10.20;;;9.20;;
11819;SDS011;5967;48.944;9.240;2022-09-01T07:01:55;10.27;;;9.20;;
11819;SDS011;5967;48.944;9.240;2022-09-01T07:04:25;14.30;;;9.00;;
11819;SDS011;5967;48.944;9.240;2022-09-01T07:06:53;10.80;;;8.77;;
11819;SDS011;5967;48.944;9.240;2022-09-01T07:09:19;11.47;;;9.00;;
11819;SDS011;5967;48.944;9.240;2022-09-01T07:11:45;10.70;;;9.60;;
11819;SDS011;5967;48.944;9.240;2022-09-01T07:14:10;9.90;;;9.00;;
11819;SDS011;5967;48.944;9.240;2022-09-01T07:16:40;12.77;;;10.17;;
11819;SDS011;5967;48.944;9.240;2022-09-01T07:19:09;10.50;;;9.40;;
11819;SDS011;5967;48.944;9.240;2022-09-01T07:21:37;11.30;;;10.20;;
11819;SDS011;5967;48.944;9.240;2022-09-01T07:24:04;11.50;;;10.30;;
11819;SDS011;5967;48.944;9.240;2022-09-01T07:26:30;10.67;;;9.57;;
11819;SDS011;5967;48.944;9.240;2022-09-01T07:28:59;10.80;;;9.47;;
11819;SDS011;5967;48.944;9.240;2022-09-01T07:31:31;11.03;;;9.30;;
11819;SDS011;5967;48.944;9.240;2022-09-01T07:34:08;10.57;;;9.57;;
11819;SDS011;5967;48.944;9.240;2022-09-01T07:36:41;11.83;;;9.17;;
11819;SDS011;5967;48.944;9.240;2022-09-01T07:39:08;9.40;;;8.40;;
11819;SDS011;5967;48.944;9.240;2022-09-01T07:41:36;8.67;;;7.77;;
11819;SDS011;5967;48.944;9.240;2022-09-01T07:44:07;8.27;;;7.47;;
11819;SDS011;5967;48.944;9.240;2022-09-01T07:46:43;9.33;;;7.13;;
11819;SDS011;5967;48.944;9.240;2022-09-01T07:49:10;8.13;;;7.33;;
11819;SDS011;5967;48.944;9.240;2022-09-01T07:51:38;7.43;;;6.70;;
11819;SDS011;5967;48.944;9.240;2022-09-01T07:54:04;8.27;;;7.43;;
11819;SDS011;5967;48.944;9.240;2022-09-01T07:56:30;8.90;;;7.53;;
11819;SDS011;5967;48.944;9.240;2022-09-01T07:58:59;7.97;;;7.17;;
11819;SDS011;5967;48.944;9.240;2022-09-01T08:01:26;7.30;;;6.60;;
11819;SDS011;5967;48.944;9.240;2022-09-01T08:03:53;7.37;;;6.57;;
11819;SDS011;5967;48.944;9.240;2022-09-01T08:06:24;7.37;;;6.67;;
11819;SDS011;5967;48.944;9.240;2022-09-01T08:08:55;7.47;;;6.60;;
11819;SDS011;5967;48.944;9.240;2022-09-01T08:11:24;7.43;;;6.67;;
11819;SDS011;5967;48.944;9.240;2022-09-01T08:13:53;9.80;;;6.77;;
11819;SDS011;5967;48.944;9.240;2022-09-01T08:16:19;6.67;;;6.03;;
11819;SDS011;5967;48.944;9.240;2022-09-01T08:18:46;6.60;;;5.43;;
11819;SDS011;5967;48.944;9.240;2022-09-01T08:21:15;7.10;;;6.40;;
11819;SDS011;5967;48.944;9.240;2022-09-01T08:23:53;7.67;;;5.93;;
11819;SDS011;5967;48.944;9.240;2022-09-01T08:26:20;5.67;;;5.17;;
11819;SDS011;5967;48.944;9.240;2022-09-01T08:28:48;7.23;;;5.93;;
11819;SDS011;5967;48.944;9.240;2022-09-01T08:31:16;5.97;;;5.07;;
11819;SDS011;5967;48.944;9.240;2022-09-01T08:33:46;4.73;;;4.27;;
11819;SDS011;5967;48.944;9.240;2022-09-01T08:36:16;5.37;;;4.87;;
11819;SDS011;5967;48.944;9.240;2022-09-01T08:38:42;6.73;;;5.37;;
11819;SDS011;5967;48.944;9.240;2022-09-01T08:44:09;5.97;;;4.63;;
11819;SDS011;5967;48.944;9.240;2022-09-01T08:46:40;5.63;;;4.37;;
11819;SDS011;5967;48.944;9.240;2022-09-01T08:49:16;4.43;;;4.00;;
11819;SDS011;5967;48.944;9.240;2022-09-01T08:51:47;4.17;;;3.57;;
11819;SDS011;5967;48.944;9.240;2022-09-01T08:54:21;5.27;;;3.90;;
11819;SDS011;5967;48.944;9.240;2022-09-01T08:57:10;4.17;;;3.70;;
11819;SDS011;5967;48.944;9.240;2022-09-01T08:59:40;5.10;;;4.10;;
11819;SDS011;5967;48.944;9.240;2022-09-01T09:08:01;4.50;;;4.10;;
11819;SDS011;5967;48.944;9.240;2022-09-01T09:10:57;4.87;;;3.87;;
11819;SDS011;5967;48.944;9.240;2022-09-01T09:13:34;4.15;;;3.75;;
11819;SDS011;5967;48.944;9.240;2022-09-01T09:16:14;6.60;;;4.13;;
11819;SDS011;5967;48.944;9.240;2022-09-01T09:21:42;5.20;;;3.65;;
11819;SDS011;5967;48.944;9.240;2022-09-01T09:26:46;4.13;;;3.20;;
11819;SDS011;5967;48.944;9.240;2022-09-01T09:29:16;3.20;;;2.90;;
11819;SDS011;5967;48.944;9.240;2022-09-01T09:31:42;3.65;;;3.35;;
11819;SDS011;5967;48.944;9.240;2022-09-01T09:34:54;6.25;;;3.78;;
11819;SDS011;5967;48.944;9.240;2022-09-01T09:42:27;3.92;;;3.53;;
11819;SDS011;5967;48.944;9.240;2022-09-01T09:44:52;3.75;;;3.30;;
11819;SDS011;5967;48.944;9.240;2022-09-01T09:47:35;3.70;;;3.13;;
11819;SDS011;5967;48.944;9.240;2022-09-01T09:50:13;3.45;;;3.15;;
11819;SDS011;5967;48.944;9.240;2022-09-01T09:52:41;3.42;;;3.13;;
11819;SDS011;5967;48.944;9.240;2022-09-01T09:55:28;4.00;;;3.33;;
11819;SDS011;5967;48.944;9.240;2022-09-01T09:57:58;4.40;;;3.85;;
11819;SDS011;5967;48.944;9.240;2022-09-01T10:00:32;4.20;;;3.17;;
11819;SDS011;5967;48.944;9.240;2022-09-01T10:03:08;3.38;;;3.05;;
11819;SDS011;5967;48.944;9.240;2022-09-01T10:05:44;3.97;;;3.50;;
11819;SDS011;5967;48.944;9.240;2022-09-01T10:10:58;3.65;;;3.35;;
11819;SDS011;5967;48.944;9.240;2022-09-01T10:13:25;3.97;;;3.63;;
11819;SDS011;5967;48.944;9.240;2022-09-01T10:15:54;3.88;;;3.53;;
11819;SDS011;5967;48.944;9.240;2022-09-01T10:18:33;3.72;;;3.42;;
11819;SDS011;5967;48.944;9.240;2022-09-01T10:21:03;3.85;;;3.35;;
11819;SDS011;5967;48.944;9.240;2022-09-01T10:23:33;3.55;;;3.25;;
11819;SDS011;5967;48.944;9.240;2022-09-01T10:26:22;3.28;;;2.97;;
11819;SDS011;5967;48.944;9.240;2022-09-01T10:29:14;3.20;;;2.80;;
11819;SDS011;5967;48.944;9.240;2022-09-01T10:31:52;3.20;;;2.90;;
11819;SDS011;5967;48.944;9.240;2022-09-01T10:34:19;3.58;;;3.08;;
11819;SDS011;5967;48.944;9.240;2022-09-01T10:36:46;5.20;;;2.80;;
11819;SDS011;5967;48.944;9.240;2022-09-01T10:39:17;3.47;;;3.00;;
11819;SDS011;5967;48.944;9.240;2022-09-01T10:46:57;6.00;;;3.25;;
11819;SDS011;5967;48.944;9.240;2022-09-01T10:51:52;3.40;;;3.10;;
11819;SDS011;5967;48.944;9.240;2022-09-01T10:57:30;3.47;;;2.95;;
11819;SDS011;5967;48.944;9.240;2022-09-01T10:59:54;3.58;;;3.10;;
11819;SDS011;5967;48.944;9.240;2022-09-01T11:13:50;3.85;;;3.17;;
11819;SDS011;5967;48.944;9.240;2022-09-01T11:16:38;4.30;;;3.22;;
11819;SDS011;5967;48.944;9.240;2022-09-01T11:22:29;3.65;;;3.35;;
11819;SDS011;5967;48.944;9.240;2022-09-01T11:35:40;3.53;;;3.22;;
11819;SDS011;5967;48.944;9.240;2022-09-01T11:38:11;3.22;;;3.03;;
11819;SDS011;5967;48.944;9.240;2022-09-01T11:40:40;3.22;;;2.92;;
11819;SDS011;5967;48.944;9.240;2022-09-01T11:43:08;4.95;;;3.00;;
11819;SDS011;5967;48.944;9.240;2022-09-01T11:45:41;3.65;;;2.97;;
11819;SDS011;5967;48.944;9.240;2022-09-01T11:48:16;3.20;;;2.90;;
11819;SDS011;5967;48.944;9.240;2022-09-01T11:50:42;4.32;;;3.40;;
11819;SDS011;5967;48.944;9.240;2022-09-01T11:53:12;3.63;;;2.80;;
11819;SDS011;5967;48.944;9.240;2022-09-01T11:58:28;3.00;;;2.67;;
11819;SDS011;5967;48.944;9.240;2022-09-01T12:01:10;3.25;;;2.95;;
11819;SDS011;5967;48.944;9.240;2022-09-01T12:03:36;2.90;;;2.70;;
11819;SDS011;5967;48.944;9.240;2022-09-01T12:06:03;4.25;;;2.58;;
11819;SDS011;5967;48.944;9.240;2022-09-01T12:08:35;3.17;;;2.90;;
11819;SDS011;5967;48.944;9.240;2022-09-01T12:11:11;5.15;;;3.05;;
11819;SDS011;5967;48.944;9.240;2022-09-01T12:13:52;3.70;;;2.80;;
11819;SDS011;5967;48.944;9.240;2022-09-01T12:16:26;3.20;;;2.90;;
11819;SDS011;5967;48.944;9.240;2022-09-01T12:18:53;3.80;;;2.90;;
11819;SDS011;5967;48.944;9.240;2022-09-01T12:21:29;4.30;;;2.95;;
11819;SDS011;5967;48.944;9.240;2022-09-01T12:24:14;4.85;;;3.70;;
11819;SDS011;5967;48.944;9.240;2022-09-01T12:26:45;3.40;;;3.10;;
11819;SDS011;5967;48.944;9.240;2022-09-01T12:29:12;5.43;;;3.10;;
11819;SDS011;5967;48.944;9.240;2022-09-01T12:31:39;4.50;;;3.28;;
11819;SDS011;5967;48.944;9.240;2022-09-01T12:34:22;3.40;;;3.10;;
11819;SDS011;5967;48.944;9.240;2022-09-01T12:39:40;3.08;;;2.78;;
11819;SDS011;5967;48.944;9.240;2022-09-01T12:42:21;3.10;;;2.88;;
11819;SDS011;5967;48.944;9.240;2022-09-01T12:44:58;3.30;;;3.00;;
11819;SDS011;5967;48.944;9.240;2022-09-01T12:50:00;2.60;;;2.40;;
11819;SDS011;5967;48.944;9.240;2022-09-01T12:52:29;2.55;;;2.35;;
11819;SDS011;5967;48.944;9.240;2022-09-01T12:57:26;3.22;;;2.70;;
11819;SDS011;5967;48.944;9.240;2022-09-01T13:02:35;2.85;;;2.47;;
11819;SDS011;5967;48.944;9.240;2022-09-01T13:05:19;2.97;;;2.78;;
11819;SDS011;5967;48.944;9.240;2022-09-01T13:07:56;3.20;;;2.88;;
11819;SDS011;5967;48.944;9.240;2022-09-01T13:10:25;2.60;;;2.40;;
11819;SDS011;5967;48.944;9.240;2022-09-01T13:12:54;3.25;;;2.95;;
11819;SDS011;5967;48.944;9.240;2022-09-01T13:15:22;3.25;;;2.95;;
11819;SDS011;5967;48.944;9.240;2022-09-01T13:17:49;3.05;;;2.70;;
11819;SDS011;5967;48.944;9.240;2022-09-01T13:20:15;3.08;;;2.88;;
11819;SDS011;5967;48.944;9.240;2022-09-01T13:22:42;3.92;;;2.88;;
11819;SDS011;5967;48.944;9.240;2022-09-01T13:25:09;3.65;;;3.05;;
11819;SDS011;5967;48.944;9.240;2022-09-01T13:27:39;3.38;;;3.08;;
11819;SDS011;5967;48.944;9.240;2022-09-01T13:30:08;3.65;;;3.35;;
11819;SDS011;5967;48.944;9.240;2022-09-01T13:32:36;4.70;;;3.45;;
11819;SDS011;5967;48.944;9.240;2022-09-01T13:35:02;3.47;;;3.17;;
11819;SDS011;5967;48.944;9.240;2022-09-01T13:37:28;3.70;;;3.40;;
11819;SDS011;5967;48.944;9.240;2022-09-01T13:39:54;3.13;;;2.83;;
11819;SDS011;5967;48.944;9.240;2022-09-01T13:42:20;3.35;;;2.53;;
11819;SDS011;5967;48.944;9.240;2022-09-01T13:44:46;2.70;;;2.50;;
11819;SDS011;5967;48.944;9.240;2022-09-01T13:47:12;2.63;;;2.42;;
11819;SDS011;5967;48.944;9.240;2022-09-01T13:49:37;3.72;;;2.70;;
11819;SDS011;5967;48.944;9.240;2022-09-01T13:52:03;3.47;;;2.53;;
11819;SDS011;5967;48.944;9.240;2022-09-01T13:54:29;2.55;;;2.30;;
11819;SDS011;5967;48.944;9.240;2022-09-01T13:56:55;2.50;;;2.30;;
11819;SDS011;5967;48.944;9.240;2022-09-01T13:59:21;3.08;;;2.20;;
11819;SDS011;5967;48.944;9.240;2022-09-01T14:01:47;5.10;;;2.20;;
11819;SDS011;5967;48.944;9.240;2022-09-01T14:04:12;2.53;;;2.33;;
11819;SDS011;5967;48.944;9.240;2022-09-01T14:06:39;2.78;;;2.50;;
11819;SDS011;5967;48.944;9.240;2022-09-01T14:09:05;3.25;;;2.35;;
11819;SDS011;5967;48.944;9.240;2022-09-01T14:11:31;3.78;;;2.20;;
11819;SDS011;5967;48.944;9.240;2022-09-01T14:13:56;2.40;;;2.20;;
11819;SDS011;5967;48.944;9.240;2022-09-01T14:16:22;2.53;;;2.33;;
11819;SDS011;5967;48.944;9.240;2022-09-01T14:18:48;2.67;;;2.20;;
11819;SDS011;5967;48.944;9.240;2022-09-01T14:21:14;2.53;;;2.28;;
11819;SDS011;5967;48.944;9.240;2022-09-01T14:23:41;2.40;;;2.20;;
11819;SDS011;5967;48.944;9.240;2022-09-01T14:26:08;2.63;;;2.15;;
11819;SDS011;5967;48.944;9.240;2022-09-01T14:28:36;3.38;;;2.00;;
11819;SDS011;5967;48.944;9.240;2022-09-01T14:31:06;2.20;;;2.00;;
11819;SDS011;5967;48.944;9.240;2022-09-01T14:33:36;2.83;;;2.30;;
11819;SDS011;5967;48.944;9.240;2022-09-01T14:36:03;4.05;;;2.10;;
11819;SDS011;5967;48.944;9.240;2022-09-01T14:38:30;2.67;;;2.00;;
11819;SDS011;5967;48.944;9.240;2022-09-01T14:40:56;2.83;;;2.13;;
11819;SDS011;5967;48.944;9.240;2022-09-01T14:43:21;2.85;;;2.47;;
11819;SDS011;5967;48.944;9.240;2022-09-01T14:45:48;4.70;;;2.53;;
11819;SDS011;5967;48.944;9.240;2022-09-01T14:48:14;2.85;;;2.40;;
11819;SDS011;5967;48.944;9.240;2022-09-01T14:50:43;2.45;;;2.25;;
11819;SDS011;5967;48.944;9.240;2022-09-01T14:53:11;2.42;;;2.20;;
11819;SDS011;5967;48.944;9.240;2022-09-01T14:55:37;2.30;;;2.10;;
11819;SDS011;5967;48.944;9.240;2022-09-01T14:58:03;2.80;;;2.60;;
11819;SDS011;5967;48.944;9.240;2022-09-01T15:00:29;2.70;;;2.45;;
11819;SDS011;5967;48.944;9.240;2022-09-01T15:02:56;2.08;;;1.88;;
11819;SDS011;5967;48.944;9.240;2022-09-01T15:05:22;3.50;;;2.38;;
11819;SDS011;5967;48.944;9.240;2022-09-01T15:07:49;2.75;;;2.28;;
11819;SDS011;5967;48.944;9.240;2022-09-01T15:10:16;3.58;;;2.50;;
11819;SDS011;5967;48.944;9.240;2022-09-01T15:12:45;2.50;;;2.10;;
11819;SDS011;5967;48.944;9.240;2022-09-01T15:15:11;3.40;;;2.47;;
11819;SDS011;5967;48.944;9.240;2022-09-01T15:17:37;2.58;;;2.38;;
11819;SDS011;5967;48.944;9.240;2022-09-01T15:20:02;5.82;;;2.80;;
11819;SDS011;5967;48.944;9.240;2022-09-01T15:22:48;2.97;;;2.50;;
11819;SDS011;5967;48.944;9.240;2022-09-01T15:25:14;3.08;;;2.60;;
11819;SDS011;5967;48.944;9.240;2022-09-01T15:27:40;2.60;;;2.40;;
11819;SDS011;5967;48.944;9.240;2022-09-01T15:30:07;2.63;;;2.42;;
11819;SDS011;5967;48.944;9.240;2022-09-01T15:32:39;3.20;;;2.58;;
11819;SDS011;5967;48.944;9.240;2022-09-01T15:35:06;3.50;;;2.35;;
11819;SDS011;5967;48.944;9.240;2022-09-01T15:37:33;2.78;;;2.28;;
11819;SDS011;5967;48.944;9.240;2022-09-01T15:39:58;2.53;;;2.33;;
11819;SDS011;5967;48.944;9.240;2022-09-01T15:42:24;4.43;;;2.20;;
11819;SDS011;5967;48.944;9.240;2022-09-01T15:44:53;3.00;;;2.20;;
11819;SDS011;5967;48.944;9.240;2022-09-01T15:47:18;2.67;;;2.45;;
11819;SDS011;5967;48.944;9.240;2022-09-01T15:49:47;3.10;;;2.75;;
11819;SDS011;5967;48.944;9.240;2022-09-01T15:52:13;4.38;;;2.70;;
11819;SDS011;5967;48.944;9.240;2022-09-01T15:54:40;4.65;;;2.80;;
11819;SDS011;5967;48.944;9.240;2022-09-01T15:57:06;3.15;;;2.70;;
11819;SDS011;5967;48.944;9.240;2022-09-01T15:59:31;2.80;;;2.60;;
11819;SDS011;5967;48.944;9.240;2022-09-01T16:01:58;4.15;;;3.00;;
11819;SDS011;5967;48.944;9.240;2022-09-01T16:04:23;3.70;;;2.60;;
11819;SDS011;5967;48.944;9.240;2022-09-01T16:06:49;3.08;;;2.78;;
11819;SDS011;5967;48.944;9.240;2022-09-01T16:09:16;4.03;;;3.10;;
11819;SDS011;5967;48.944;9.240;2022-09-01T16:11:44;4.97;;;3.10;;
11819;SDS011;5967;48.944;9.240;2022-09-01T16:14:10;3.15;;;2.85;;
11819;SDS011;5967;48.944;9.240;2022-09-01T16:19:45;3.22;;;2.92;;
11819;SDS011;5967;48.944;9.240;2022-09-01T16:22:28;5.75;;;3.20;;
11819;SDS011;5967;48.944;9.240;2022-09-01T16:25:00;3.45;;;2.78;;
11819;SDS011;5967;48.944;9.240;2022-09-01T16:27:34;6.72;;;3.20;;